sensor_id;sensor_type;location;lat;lon;timestamp;P1;durP1;ratioP1;P2;durP2;ratioP2
75847;SDS011;65750;47.540;19.090;2023-04-28T00:02:11;22.52;;;11.40;;
75847;SDS011;65750;47.540;19.090;2023-04-28T00:04:39;22.90;;;11.38;;
75847;SDS011;65750;47.540;19.090;2023-04-28T00:07:07;24.33;;;11.20;;
75847;SDS011;65750;47.540;19.090;2023-04-28T00:09:34;21.40;;;11.10;;
75847;SDS011;65750;47.540;19.090;2023-04-28T00:12:02;23.12;;;11.02;;
75847;SDS011;65750;47.540;19.090;2023-04-28T00:14:29;22.42;;;10.85;;
75847;SDS011;65750;47.540;19.090;2023-04-28T00:16:56;23.15;;;10.10;;
75847;SDS011;65750;47.540;19.090;2023-04-28T00:19:24;20.30;;;9.95;;
75847;SDS011;65750;47.540;19.090;2023-04-28T00:21:51;19.83;;;10.23;;
75847;SDS011;65750;47.540;19.090;2023-04-28T00:24:19;22.15;;;9.95;;
75847;SDS011;65750;47.540;19.090;2023-04-28T00:26:47;20.10;;;9.85;;
75847;SDS011;65750;47.540;19.090;2023-04-28T00:29:14;19.60;;;9.93;;
75847;SDS011;65750;47.540;19.090;2023-04-28T00:31:41;18.48;;;8.80;;
75847;SDS011;65750;47.540;19.090;2023-04-28T00:34:08;20.43;;;9.40;;
75847;SDS011;65750;47.540;19.090;2023-04-28T00:36:38;17.85;;;9.38;;
75847;SDS011;65750;47.540;19.090;2023-04-28T00:39:05;20.58;;;9.57;;
75847;SDS011;65750;47.540;19.090;2023-04-28T00:41:34;18.58;;;9.65;;
75847;SDS011;65750;47.540;19.090;2023-04-28T00:44:01;19.70;;;8.95;;
75847;SDS011;65750;47.540;19.090;2023-04-28T00:46:29;18.87;;;8.70;;
75847;SDS011;65750;47.540;19.090;2023-04-28T00:48:57;16.40;;;8.40;;
75847;SDS011;65750;47.540;19.090;2023-04-28T00:51:24;17.52;;;8.30;;
75847;SDS011;65750;47.540;19.090;2023-04-28T00:53:54;16.33;;;8.35;;
75847;SDS011;65750;47.540;19.090;2023-04-28T00:56:21;16.62;;;8.13;;
75847;SDS011;65750;47.540;19.090;2023-04-28T00:58:49;18.20;;;8.50;;
75847;SDS011;65750;47.540;19.090;2023-04-28T01:01:17;16.92;;;8.07;;
75847;SDS011;65750;47.540;19.090;2023-04-28T01:03:44;18.23;;;8.48;;
75847;SDS011;65750;47.540;19.090;2023-04-28T01:06:12;15.45;;;8.18;;
75847;SDS011;65750;47.540;19.090;2023-04-28T01:08:39;14.80;;;7.60;;
75847;SDS011;65750;47.540;19.090;2023-04-28T01:11:07;16.57;;;7.50;;
75847;SDS011;65750;47.540;19.090;2023-04-28T01:13:39;16.33;;;8.18;;
75847;SDS011;65750;47.540;19.090;2023-04-28T01:16:09;14.85;;;7.85;;
75847;SDS011;65750;47.540;19.090;2023-04-28T01:18:36;15.90;;;8.13;;
75847;SDS011;65750;47.540;19.090;2023-04-28T01:21:04;15.38;;;6.95;;
75847;SDS011;65750;47.540;19.090;2023-04-28T01:23:32;17.70;;;7.40;;
75847;SDS011;65750;47.540;19.090;2023-04-28T01:26:00;14.70;;;8.00;;
75847;SDS011;65750;47.540;19.090;2023-04-28T01:28:27;15.25;;;7.53;;
75847;SDS011;65750;47.540;19.090;2023-04-28T01:30:55;16.10;;;7.12;;
75847;SDS011;65750;47.540;19.090;2023-04-28T01:33:22;14.75;;;7.10;;
75847;SDS011;65750;47.540;19.090;2023-04-28T01:35:49;14.63;;;7.17;;
75847;SDS011;65750;47.540;19.090;2023-04-28T01:38:17;14.60;;;7.05;;
75847;SDS011;65750;47.540;19.090;2023-04-28T01:40:44;13.18;;;6.87;;
75847;SDS011;65750;47.540;19.090;2023-04-28T01:43:12;15.18;;;6.97;;
75847;SDS011;65750;47.540;19.090;2023-04-28T01:45:39;14.13;;;6.70;;
75847;SDS011;65750;47.540;19.090;2023-04-28T01:48:07;15.87;;;7.37;;
75847;SDS011;65750;47.540;19.090;2023-04-28T01:50:34;15.02;;;6.87;;
75847;SDS011;65750;47.540;19.090;2023-04-28T01:53:03;13.57;;;6.90;;
75847;SDS011;65750;47.540;19.090;2023-04-28T01:55:31;13.65;;;6.80;;
75847;SDS011;65750;47.540;19.090;2023-04-28T01:57:58;13.15;;;6.50;;
75847;SDS011;65750;47.540;19.090;2023-04-28T02:00:28;14.07;;;6.17;;
75847;SDS011;65750;47.540;19.090;2023-04-28T02:02:55;13.38;;;6.12;;
75847;SDS011;65750;47.540;19.090;2023-04-28T02:05:23;11.32;;;5.90;;
75847;SDS011;65750;47.540;19.090;2023-04-28T02:07:51;11.75;;;6.47;;
75847;SDS011;65750;47.540;19.090;2023-04-28T02:10:18;12.15;;;6.07;;
75847;SDS011;65750;47.540;19.090;2023-04-28T02:12:45;12.03;;;6.27;;
75847;SDS011;65750;47.540;19.090;2023-04-28T02:15:12;11.93;;;5.75;;
75847;SDS011;65750;47.540;19.090;2023-04-28T02:17:41;11.70;;;5.87;;
75847;SDS011;65750;47.540;19.090;2023-04-28T02:20:09;11.20;;;5.90;;
75847;SDS011;65750;47.540;19.090;2023-04-28T02:22:37;10.45;;;5.45;;
75847;SDS011;65750;47.540;19.090;2023-04-28T02:25:05;12.83;;;5.83;;
75847;SDS011;65750;47.540;19.090;2023-04-28T02:27:35;11.45;;;5.85;;
75847;SDS011;65750;47.540;19.090;2023-04-28T02:30:03;11.05;;;5.53;;
75847;SDS011;65750;47.540;19.090;2023-04-28T02:32:30;9.88;;;5.15;;
75847;SDS011;65750;47.540;19.090;2023-04-28T02:34:59;9.82;;;5.30;;
75847;SDS011;65750;47.540;19.090;2023-04-28T02:37:27;9.97;;;5.80;;
75847;SDS011;65750;47.540;19.090;2023-04-28T02:39:54;10.70;;;5.50;;
75847;SDS011;65750;47.540;19.090;2023-04-28T02:42:21;9.50;;;5.20;;
75847;SDS011;65750;47.540;19.090;2023-04-28T02:44:49;9.93;;;4.97;;
75847;SDS011;65750;47.540;19.090;2023-04-28T02:47:16;10.40;;;5.00;;
75847;SDS011;65750;47.540;19.090;2023-04-28T02:49:43;8.67;;;5.00;;
75847;SDS011;65750;47.540;19.090;2023-04-28T02:52:12;8.70;;;4.72;;
75847;SDS011;65750;47.540;19.090;2023-04-28T02:54:38;9.77;;;5.37;;
75847;SDS011;65750;47.540;19.090;2023-04-28T02:57:06;9.73;;;4.97;;
75847;SDS011;65750;47.540;19.090;2023-04-28T02:59:33;10.82;;;5.03;;
75847;SDS011;65750;47.540;19.090;2023-04-28T03:02:00;9.90;;;5.50;;
75847;SDS011;65750;47.540;19.090;2023-04-28T03:04:27;11.57;;;4.75;;
75847;SDS011;65750;47.540;19.090;2023-04-28T03:06:55;9.63;;;4.85;;
75847;SDS011;65750;47.540;19.090;2023-04-28T03:09:23;8.82;;;4.85;;
75847;SDS011;65750;47.540;19.090;2023-04-28T03:11:51;10.07;;;5.07;;
75847;SDS011;65750;47.540;19.090;2023-04-28T03:14:18;8.50;;;4.77;;
75847;SDS011;65750;47.540;19.090;2023-04-28T03:16:45;8.82;;;4.93;;
75847;SDS011;65750;47.540;19.090;2023-04-28T03:19:13;9.30;;;4.43;;
75847;SDS011;65750;47.540;19.090;2023-04-28T03:21:40;8.68;;;4.47;;
75847;SDS011;65750;47.540;19.090;2023-04-28T03:24:07;8.32;;;4.15;;
75847;SDS011;65750;47.540;19.090;2023-04-28T03:26:36;8.77;;;4.70;;
75847;SDS011;65750;47.540;19.090;2023-04-28T03:29:03;7.97;;;4.43;;
75847;SDS011;65750;47.540;19.090;2023-04-28T03:31:31;8.20;;;4.70;;
75847;SDS011;65750;47.540;19.090;2023-04-28T03:33:58;9.25;;;4.62;;
75847;SDS011;65750;47.540;19.090;2023-04-28T03:36:26;7.68;;;4.25;;
75847;SDS011;65750;47.540;19.090;2023-04-28T03:38:53;8.23;;;4.27;;
75847;SDS011;65750;47.540;19.090;2023-04-28T03:41:20;8.30;;;4.47;;
75847;SDS011;65750;47.540;19.090;2023-04-28T03:43:51;9.45;;;4.32;;
75847;SDS011;65750;47.540;19.090;2023-04-28T03:46:21;8.27;;;4.15;;
75847;SDS011;65750;47.540;19.090;2023-04-28T03:48:48;8.95;;;4.40;;
75847;SDS011;65750;47.540;19.090;2023-04-28T03:51:17;7.50;;;4.00;;
75847;SDS011;65750;47.540;19.090;2023-04-28T03:53:44;8.50;;;4.30;;
75847;SDS011;65750;47.540;19.090;2023-04-28T03:56:12;7.87;;;4.10;;
75847;SDS011;65750;47.540;19.090;2023-04-28T03:58:39;8.82;;;4.10;;
75847;SDS011;65750;47.540;19.090;2023-04-28T04:01:08;6.85;;;4.10;;
75847;SDS011;65750;47.540;19.090;2023-04-28T04:03:36;7.47;;;3.80;;
75847;SDS011;65750;47.540;19.090;2023-04-28T04:06:04;8.80;;;4.40;;
75847;SDS011;65750;47.540;19.090;2023-04-28T04:08:32;7.10;;;4.00;;
75847;SDS011;65750;47.540;19.090;2023-04-28T04:10:59;7.55;;;4.20;;
75847;SDS011;65750;47.540;19.090;2023-04-28T04:13:26;6.80;;;4.10;;
75847;SDS011;65750;47.540;19.090;2023-04-28T04:15:53;6.23;;;3.83;;
75847;SDS011;65750;47.540;19.090;2023-04-28T04:18:24;7.65;;;4.05;;
75847;SDS011;65750;47.540;19.090;2023-04-28T04:20:53;6.75;;;3.65;;
75847;SDS011;65750;47.540;19.090;2023-04-28T04:23:22;6.75;;;3.70;;
75847;SDS011;65750;47.540;19.090;2023-04-28T04:25:49;7.90;;;4.07;;
75847;SDS011;65750;47.540;19.090;2023-04-28T04:28:16;6.90;;;4.00;;
75847;SDS011;65750;47.540;19.090;2023-04-28T04:30:44;7.30;;;4.20;;
75847;SDS011;65750;47.540;19.090;2023-04-28T04:33:11;5.62;;;3.30;;
75847;SDS011;65750;47.540;19.090;2023-04-28T04:35:39;7.15;;;3.67;;
75847;SDS011;65750;47.540;19.090;2023-04-28T04:38:06;7.10;;;3.60;;
75847;SDS011;65750;47.540;19.090;2023-04-28T04:40:33;6.13;;;3.60;;
75847;SDS011;65750;47.540;19.090;2023-04-28T04:43:01;5.90;;;3.90;;
75847;SDS011;65750;47.540;19.090;2023-04-28T04:45:29;11.25;;;3.87;;
75847;SDS011;65750;47.540;19.090;2023-04-28T04:47:56;7.32;;;3.75;;
75847;SDS011;65750;47.540;19.090;2023-04-28T04:50:23;8.10;;;3.87;;
75847;SDS011;65750;47.540;19.090;2023-04-28T04:52:52;5.73;;;3.47;;
75847;SDS011;65750;47.540;19.090;2023-04-28T04:55:22;6.32;;;3.55;;
75847;SDS011;65750;47.540;19.090;2023-04-28T04:57:50;6.57;;;4.07;;
75847;SDS011;65750;47.540;19.090;2023-04-28T05:00:19;5.75;;;3.33;;
75847;SDS011;65750;47.540;19.090;2023-04-28T05:02:47;6.10;;;3.30;;
75847;SDS011;65750;47.540;19.090;2023-04-28T05:05:15;7.77;;;4.27;;
75847;SDS011;65750;47.540;19.090;2023-04-28T05:07:43;7.95;;;4.03;;
75847;SDS011;65750;47.540;19.090;2023-04-28T05:10:11;5.82;;;3.35;;
75847;SDS011;65750;47.540;19.090;2023-04-28T05:12:38;6.18;;;3.67;;
75847;SDS011;65750;47.540;19.090;2023-04-28T05:15:06;6.93;;;3.40;;
75847;SDS011;65750;47.540;19.090;2023-04-28T05:17:35;6.83;;;3.30;;
75847;SDS011;65750;47.540;19.090;2023-04-28T05:20:02;6.12;;;3.45;;
75847;SDS011;65750;47.540;19.090;2023-04-28T05:22:30;6.07;;;3.40;;
75847;SDS011;65750;47.540;19.090;2023-04-28T05:24:57;5.97;;;3.40;;
75847;SDS011;65750;47.540;19.090;2023-04-28T05:27:26;5.85;;;3.28;;
75847;SDS011;65750;47.540;19.090;2023-04-28T05:29:53;6.20;;;3.50;;
75847;SDS011;65750;47.540;19.090;2023-04-28T05:32:20;6.20;;;3.58;;
75847;SDS011;65750;47.540;19.090;2023-04-28T05:34:47;5.90;;;3.40;;
75847;SDS011;65750;47.540;19.090;2023-04-28T05:37:16;5.28;;;3.15;;
75847;SDS011;65750;47.540;19.090;2023-04-28T05:39:43;8.68;;;3.67;;
75847;SDS011;65750;47.540;19.090;2023-04-28T05:42:11;6.27;;;3.33;;
75847;SDS011;65750;47.540;19.090;2023-04-28T05:44:40;6.30;;;3.30;;
75847;SDS011;65750;47.540;19.090;2023-04-28T05:47:07;6.78;;;3.35;;
75847;SDS011;65750;47.540;19.090;2023-04-28T05:49:34;5.10;;;3.22;;
75847;SDS011;65750;47.540;19.090;2023-04-28T05:52:03;5.97;;;3.60;;
75847;SDS011;65750;47.540;19.090;2023-04-28T05:54:31;6.40;;;3.50;;
75847;SDS011;65750;47.540;19.090;2023-04-28T05:56:59;6.15;;;3.60;;
75847;SDS011;65750;47.540;19.090;2023-04-28T05:59:27;6.12;;;3.33;;
75847;SDS011;65750;47.540;19.090;2023-04-28T06:01:57;5.72;;;3.40;;
75847;SDS011;65750;47.540;19.090;2023-04-28T06:04:24;5.28;;;3.40;;
75847;SDS011;65750;47.540;19.090;2023-04-28T06:06:52;5.33;;;3.30;;
75847;SDS011;65750;47.540;19.090;2023-04-28T06:09:19;6.15;;;3.15;;
75847;SDS011;65750;47.540;19.090;2023-04-28T06:11:47;5.75;;;3.15;;
75847;SDS011;65750;47.540;19.090;2023-04-28T06:14:14;7.45;;;3.20;;
75847;SDS011;65750;47.540;19.090;2023-04-28T06:16:41;5.75;;;3.28;;
75847;SDS011;65750;47.540;19.090;2023-04-28T06:19:10;5.37;;;3.30;;
75847;SDS011;65750;47.540;19.090;2023-04-28T06:21:39;5.72;;;3.60;;
75847;SDS011;65750;47.540;19.090;2023-04-28T06:24:06;6.57;;;4.40;;
75847;SDS011;65750;47.540;19.090;2023-04-28T06:26:35;6.62;;;4.22;;
75847;SDS011;65750;47.540;19.090;2023-04-28T06:29:02;10.02;;;4.40;;
75847;SDS011;65750;47.540;19.090;2023-04-28T06:31:29;7.00;;;4.00;;
75847;SDS011;65750;47.540;19.090;2023-04-28T06:33:57;8.38;;;4.18;;
75847;SDS011;65750;47.540;19.090;2023-04-28T06:36:25;7.55;;;4.28;;
75847;SDS011;65750;47.540;19.090;2023-04-28T06:38:52;7.05;;;4.43;;
75847;SDS011;65750;47.540;19.090;2023-04-28T06:41:20;7.32;;;4.03;;
75847;SDS011;65750;47.540;19.090;2023-04-28T06:43:48;7.47;;;4.20;;
75847;SDS011;65750;47.540;19.090;2023-04-28T06:46:16;7.50;;;4.62;;
75847;SDS011;65750;47.540;19.090;2023-04-28T06:48:43;8.02;;;4.10;;
75847;SDS011;65750;47.540;19.090;2023-04-28T06:51:10;7.40;;;4.37;;
75847;SDS011;65750;47.540;19.090;2023-04-28T06:53:39;9.00;;;6.18;;
75847;SDS011;65750;47.540;19.090;2023-04-28T06:56:06;13.20;;;7.03;;
75847;SDS011;65750;47.540;19.090;2023-04-28T06:58:34;9.52;;;6.18;;
75847;SDS011;65750;47.540;19.090;2023-04-28T07:01:01;10.13;;;6.50;;
75847;SDS011;65750;47.540;19.090;2023-04-28T07:03:30;11.25;;;7.15;;
75847;SDS011;65750;47.540;19.090;2023-04-28T07:05:57;13.98;;;7.57;;
75847;SDS011;65750;47.540;19.090;2023-04-28T07:08:25;13.27;;;6.17;;
75847;SDS011;65750;47.540;19.090;2023-04-28T07:10:55;11.12;;;6.20;;
75847;SDS011;65750;47.540;19.090;2023-04-28T07:13:22;12.02;;;6.60;;
75847;SDS011;65750;47.540;19.090;2023-04-28T07:15:49;29.12;;;8.60;;
75847;SDS011;65750;47.540;19.090;2023-04-28T07:18:17;25.30;;;8.30;;
75847;SDS011;65750;47.540;19.090;2023-04-28T07:20:44;22.90;;;7.57;;
75847;SDS011;65750;47.540;19.090;2023-04-28T07:23:12;21.48;;;7.70;;
75847;SDS011;65750;47.540;19.090;2023-04-28T07:25:40;22.73;;;6.82;;
75847;SDS011;65750;47.540;19.090;2023-04-28T07:28:09;16.25;;;6.72;;
75847;SDS011;65750;47.540;19.090;2023-04-28T07:30:36;22.08;;;6.35;;
75847;SDS011;65750;47.540;19.090;2023-04-28T07:33:04;14.27;;;5.73;;
75847;SDS011;65750;47.540;19.090;2023-04-28T07:35:31;17.83;;;6.57;;
75847;SDS011;65750;47.540;19.090;2023-04-28T07:37:59;14.45;;;5.70;;
75847;SDS011;65750;47.540;19.090;2023-04-28T07:40:26;14.48;;;5.68;;
75847;SDS011;65750;47.540;19.090;2023-04-28T07:42:53;15.50;;;5.60;;
75847;SDS011;65750;47.540;19.090;2023-04-28T07:45:22;16.53;;;5.60;;
75847;SDS011;65750;47.540;19.090;2023-04-28T07:47:49;16.12;;;6.22;;
75847;SDS011;65750;47.540;19.090;2023-04-28T07:50:16;11.55;;;5.75;;
75847;SDS011;65750;47.540;19.090;2023-04-28T07:52:43;11.80;;;5.90;;
75847;SDS011;65750;47.540;19.090;2023-04-28T07:55:11;15.35;;;5.70;;
75847;SDS011;65750;47.540;19.090;2023-04-28T07:57:38;12.40;;;5.40;;
75847;SDS011;65750;47.540;19.090;2023-04-28T08:00:07;12.75;;;5.90;;
75847;SDS011;65750;47.540;19.090;2023-04-28T08:02:38;10.52;;;5.30;;
75847;SDS011;65750;47.540;19.090;2023-04-28T08:05:06;10.85;;;4.85;;
75847;SDS011;65750;47.540;19.090;2023-04-28T08:07:33;12.98;;;5.15;;
75847;SDS011;65750;47.540;19.090;2023-04-28T08:10:01;10.50;;;4.93;;
75847;SDS011;65750;47.540;19.090;2023-04-28T08:12:47;13.55;;;7.10;;
75847;SDS011;65750;47.540;19.090;2023-04-28T08:15:14;10.52;;;5.80;;
75847;SDS011;65750;47.540;19.090;2023-04-28T08:17:43;10.25;;;6.32;;
75847;SDS011;65750;47.540;19.090;2023-04-28T08:20:11;10.40;;;5.72;;
75847;SDS011;65750;47.540;19.090;2023-04-28T08:22:39;9.27;;;5.30;;
75847;SDS011;65750;47.540;19.090;2023-04-28T08:25:07;10.57;;;4.75;;
75847;SDS011;65750;47.540;19.090;2023-04-28T08:27:35;11.65;;;4.65;;
75847;SDS011;65750;47.540;19.090;2023-04-28T08:30:05;8.32;;;4.90;;
75847;SDS011;65750;47.540;19.090;2023-04-28T08:32:34;7.85;;;4.70;;
75847;SDS011;65750;47.540;19.090;2023-04-28T08:35:02;9.00;;;4.40;;
75847;SDS011;65750;47.540;19.090;2023-04-28T08:37:30;11.45;;;5.50;;
75847;SDS011;65750;47.540;19.090;2023-04-28T08:39:57;8.40;;;4.93;;
75847;SDS011;65750;47.540;19.090;2023-04-28T08:42:29;8.52;;;4.37;;
75847;SDS011;65750;47.540;19.090;2023-04-28T08:44:57;9.98;;;4.68;;
75847;SDS011;65750;47.540;19.090;2023-04-28T08:47:26;9.60;;;4.00;;
75847;SDS011;65750;47.540;19.090;2023-04-28T08:50:00;8.52;;;3.90;;
75847;SDS011;65750;47.540;19.090;2023-04-28T08:52:31;10.10;;;4.15;;
75847;SDS011;65750;47.540;19.090;2023-04-28T08:54:58;5.97;;;3.75;;
75847;SDS011;65750;47.540;19.090;2023-04-28T08:57:27;6.97;;;4.00;;
75847;SDS011;65750;47.540;19.090;2023-04-28T09:00:01;7.10;;;4.40;;
75847;SDS011;65750;47.540;19.090;2023-04-28T09:02:29;5.90;;;3.70;;
75847;SDS011;65750;47.540;19.090;2023-04-28T09:04:56;6.95;;;3.67;;
75847;SDS011;65750;47.540;19.090;2023-04-28T09:07:25;5.85;;;3.25;;
75847;SDS011;65750;47.540;19.090;2023-04-28T09:10:07;7.20;;;3.83;;
75847;SDS011;65750;47.540;19.090;2023-04-28T09:12:41;7.30;;;3.87;;
75847;SDS011;65750;47.540;19.090;2023-04-28T09:15:09;6.57;;;3.58;;
75847;SDS011;65750;47.540;19.090;2023-04-28T09:17:46;7.37;;;3.80;;
75847;SDS011;65750;47.540;19.090;2023-04-28T09:20:18;6.65;;;3.70;;
75847;SDS011;65750;47.540;19.090;2023-04-28T09:22:48;7.55;;;3.72;;
75847;SDS011;65750;47.540;19.090;2023-04-28T09:25:16;6.47;;;3.23;;
75847;SDS011;65750;47.540;19.090;2023-04-28T09:27:43;7.62;;;3.70;;
75847;SDS011;65750;47.540;19.090;2023-04-28T09:30:11;7.05;;;3.20;;
75847;SDS011;65750;47.540;19.090;2023-04-28T09:32:38;7.37;;;3.30;;
75847;SDS011;65750;47.540;19.090;2023-04-28T09:35:06;5.93;;;3.15;;
75847;SDS011;65750;47.540;19.090;2023-04-28T09:37:33;5.60;;;3.37;;
75847;SDS011;65750;47.540;19.090;2023-04-28T09:40:04;7.00;;;2.90;;
75847;SDS011;65750;47.540;19.090;2023-04-28T09:42:33;6.55;;;3.20;;
75847;SDS011;65750;47.540;19.090;2023-04-28T09:45:02;6.28;;;3.15;;
75847;SDS011;65750;47.540;19.090;2023-04-28T09:47:32;7.03;;;3.10;;
75847;SDS011;65750;47.540;19.090;2023-04-28T09:50:01;5.57;;;2.90;;
75847;SDS011;65750;47.540;19.090;2023-04-28T09:52:29;5.78;;;3.10;;
75847;SDS011;65750;47.540;19.090;2023-04-28T09:54:56;6.03;;;3.47;;
75847;SDS011;65750;47.540;19.090;2023-04-28T09:57:25;7.12;;;3.30;;
75847;SDS011;65750;47.540;19.090;2023-04-28T09:59:57;5.53;;;2.80;;
75847;SDS011;65750;47.540;19.090;2023-04-28T10:02:24;7.43;;;3.33;;
75847;SDS011;65750;47.540;19.090;2023-04-28T10:04:52;6.90;;;3.00;;
75847;SDS011;65750;47.540;19.090;2023-04-28T10:07:20;5.35;;;3.20;;
75847;SDS011;65750;47.540;19.090;2023-04-28T10:09:48;5.55;;;2.60;;
75847;SDS011;65750;47.540;19.090;2023-04-28T10:12:16;5.05;;;2.40;;
75847;SDS011;65750;47.540;19.090;2023-04-28T10:14:44;4.97;;;2.90;;
75847;SDS011;65750;47.540;19.090;2023-04-28T10:17:14;7.18;;;3.08;;
75847;SDS011;65750;47.540;19.090;2023-04-28T10:19:45;5.15;;;2.75;;
75847;SDS011;65750;47.540;19.090;2023-04-28T10:22:18;7.15;;;2.92;;
75847;SDS011;65750;47.540;19.090;2023-04-28T10:25:16;4.68;;;2.55;;
75847;SDS011;65750;47.540;19.090;2023-04-28T10:27:50;4.77;;;2.80;;
75847;SDS011;65750;47.540;19.090;2023-04-28T10:30:20;5.72;;;2.50;;
75847;SDS011;65750;47.540;19.090;2023-04-28T10:33:21;7.00;;;2.67;;
75847;SDS011;65750;47.540;19.090;2023-04-28T10:35:50;5.18;;;2.55;;
75847;SDS011;65750;47.540;19.090;2023-04-28T10:38:17;6.15;;;2.70;;
75847;SDS011;65750;47.540;19.090;2023-04-28T10:40:46;5.07;;;2.87;;
75847;SDS011;65750;47.540;19.090;2023-04-28T10:43:14;5.62;;;3.08;;
75847;SDS011;65750;47.540;19.090;2023-04-28T10:46:03;6.40;;;2.85;;
75847;SDS011;65750;47.540;19.090;2023-04-28T10:48:53;5.18;;;2.85;;
75847;SDS011;65750;47.540;19.090;2023-04-28T10:51:22;5.25;;;2.60;;
75847;SDS011;65750;47.540;19.090;2023-04-28T10:56:36;5.50;;;2.83;;
75847;SDS011;65750;47.540;19.090;2023-04-28T10:59:23;4.90;;;2.95;;
75847;SDS011;65750;47.540;19.090;2023-04-28T11:01:53;6.32;;;2.60;;
75847;SDS011;65750;47.540;19.090;2023-04-28T11:04:20;4.32;;;2.42;;
75847;SDS011;65750;47.540;19.090;2023-04-28T11:09:47;5.28;;;2.70;;
75847;SDS011;65750;47.540;19.090;2023-04-28T11:12:16;6.40;;;2.80;;
75847;SDS011;65750;47.540;19.090;2023-04-28T11:14:44;4.15;;;2.25;;
75847;SDS011;65750;47.540;19.090;2023-04-28T11:17:12;4.45;;;2.40;;
75847;SDS011;65750;47.540;19.090;2023-04-28T11:19:42;4.47;;;2.43;;
75847;SDS011;65750;47.540;19.090;2023-04-28T11:22:13;5.57;;;2.85;;
75847;SDS011;65750;47.540;19.090;2023-04-28T11:24:40;6.47;;;2.60;;
75847;SDS011;65750;47.540;19.090;2023-04-28T11:27:08;5.55;;;3.10;;
75847;SDS011;65750;47.540;19.090;2023-04-28T11:29:36;4.28;;;2.58;;
75847;SDS011;65750;47.540;19.090;2023-04-28T11:32:03;5.30;;;2.80;;
75847;SDS011;65750;47.540;19.090;2023-04-28T11:34:33;4.70;;;2.90;;
75847;SDS011;65750;47.540;19.090;2023-04-28T11:37:01;4.37;;;2.50;;
75847;SDS011;65750;47.540;19.090;2023-04-28T11:39:28;5.43;;;2.55;;
75847;SDS011;65750;47.540;19.090;2023-04-28T11:41:56;4.65;;;2.72;;
75847;SDS011;65750;47.540;19.090;2023-04-28T11:44:24;5.20;;;2.90;;
75847;SDS011;65750;47.540;19.090;2023-04-28T11:46:53;3.97;;;2.87;;
75847;SDS011;65750;47.540;19.090;2023-04-28T11:49:22;4.53;;;2.78;;
75847;SDS011;65750;47.540;19.090;2023-04-28T11:51:51;4.65;;;2.58;;
75847;SDS011;65750;47.540;19.090;2023-04-28T11:54:19;3.83;;;2.42;;
75847;SDS011;65750;47.540;19.090;2023-04-28T11:56:47;3.70;;;2.20;;
75847;SDS011;65750;47.540;19.090;2023-04-28T11:59:14;4.60;;;2.22;;
75847;SDS011;65750;47.540;19.090;2023-04-28T12:01:45;5.18;;;2.65;;
75847;SDS011;65750;47.540;19.090;2023-04-28T12:04:13;4.57;;;2.55;;
75847;SDS011;65750;47.540;19.090;2023-04-28T12:06:58;4.28;;;2.70;;
75847;SDS011;65750;47.540;19.090;2023-04-28T12:09:27;4.77;;;2.30;;
75847;SDS011;65750;47.540;19.090;2023-04-28T12:11:54;4.28;;;2.50;;
75847;SDS011;65750;47.540;19.090;2023-04-28T12:14:22;4.20;;;2.60;;
75847;SDS011;65750;47.540;19.090;2023-04-28T12:16:49;4.57;;;2.67;;
75847;SDS011;65750;47.540;19.090;2023-04-28T12:19:16;5.72;;;2.50;;
75847;SDS011;65750;47.540;19.090;2023-04-28T12:21:58;4.93;;;2.70;;
75847;SDS011;65750;47.540;19.090;2023-04-28T12:24:26;5.32;;;2.70;;
75847;SDS011;65750;47.540;19.090;2023-04-28T12:26:53;5.05;;;2.78;;
75847;SDS011;65750;47.540;19.090;2023-04-28T12:32:07;4.80;;;2.12;;
75847;SDS011;65750;47.540;19.090;2023-04-28T12:34:35;6.43;;;2.70;;
75847;SDS011;65750;47.540;19.090;2023-04-28T12:37:05;5.97;;;2.78;;
75847;SDS011;65750;47.540;19.090;2023-04-28T12:39:34;4.85;;;2.40;;
75847;SDS011;65750;47.540;19.090;2023-04-28T12:42:02;9.20;;;2.87;;
75847;SDS011;65750;47.540;19.090;2023-04-28T12:44:34;5.10;;;2.80;;
75847;SDS011;65750;47.540;19.090;2023-04-28T12:47:02;5.47;;;2.60;;
75847;SDS011;65750;47.540;19.090;2023-04-28T12:49:30;6.03;;;2.85;;
75847;SDS011;65750;47.540;19.090;2023-04-28T12:51:57;6.90;;;2.70;;
75847;SDS011;65750;47.540;19.090;2023-04-28T12:54:25;5.60;;;2.80;;
75847;SDS011;65750;47.540;19.090;2023-04-28T12:56:53;5.40;;;2.53;;
75847;SDS011;65750;47.540;19.090;2023-04-28T12:59:20;4.37;;;2.40;;
75847;SDS011;65750;47.540;19.090;2023-04-28T13:01:47;4.87;;;2.67;;
75847;SDS011;65750;47.540;19.090;2023-04-28T13:04:15;6.12;;;2.62;;
75847;SDS011;65750;47.540;19.090;2023-04-28T13:06:43;6.57;;;2.40;;
75847;SDS011;65750;47.540;19.090;2023-04-28T13:09:10;5.62;;;2.67;;
75847;SDS011;65750;47.540;19.090;2023-04-28T13:11:39;4.23;;;2.10;;
75847;SDS011;65750;47.540;19.090;2023-04-28T13:14:06;12.50;;;2.83;;
75847;SDS011;65750;47.540;19.090;2023-04-28T13:16:33;4.95;;;2.40;;
75847;SDS011;65750;47.540;19.090;2023-04-28T13:19:02;4.37;;;2.53;;
75847;SDS011;65750;47.540;19.090;2023-04-28T13:21:34;18.08;;;7.82;;
75847;SDS011;65750;47.540;19.090;2023-04-28T13:24:02;11.13;;;4.20;;
75847;SDS011;65750;47.540;19.090;2023-04-28T13:26:29;40.00;;;17.75;;
75847;SDS011;65750;47.540;19.090;2023-04-28T13:28:59;42.15;;;16.70;;
75847;SDS011;65750;47.540;19.090;2023-04-28T13:31:26;31.90;;;14.15;;
75847;SDS011;65750;47.540;19.090;2023-04-28T13:33:54;27.90;;;12.88;;
75847;SDS011;65750;47.540;19.090;2023-04-28T13:36:21;21.53;;;10.60;;
75847;SDS011;65750;47.540;19.090;2023-04-28T13:38:48;24.45;;;10.65;;
75847;SDS011;65750;47.540;19.090;2023-04-28T13:41:16;20.12;;;9.13;;
75847;SDS011;65750;47.540;19.090;2023-04-28T13:43:44;22.98;;;9.13;;
75847;SDS011;65750;47.540;19.090;2023-04-28T13:46:12;20.33;;;8.88;;
75847;SDS011;65750;47.540;19.090;2023-04-28T13:48:39;19.27;;;8.40;;
75847;SDS011;65750;47.540;19.090;2023-04-28T13:51:07;18.17;;;8.25;;
75847;SDS011;65750;47.540;19.090;2023-04-28T13:53:34;18.20;;;7.75;;
75847;SDS011;65750;47.540;19.090;2023-04-28T13:56:03;17.23;;;7.60;;
75847;SDS011;65750;47.540;19.090;2023-04-28T13:58:30;18.73;;;7.22;;
75847;SDS011;65750;47.540;19.090;2023-04-28T14:00:57;13.30;;;6.53;;
75847;SDS011;65750;47.540;19.090;2023-04-28T14:03:26;10.93;;;5.32;;
75847;SDS011;65750;47.540;19.090;2023-04-28T14:05:54;10.88;;;5.10;;
75847;SDS011;65750;47.540;19.090;2023-04-28T14:08:22;12.98;;;5.10;;
75847;SDS011;65750;47.540;19.090;2023-04-28T14:10:50;9.60;;;4.25;;
75847;SDS011;65750;47.540;19.090;2023-04-28T14:13:17;8.97;;;4.43;;
75847;SDS011;65750;47.540;19.090;2023-04-28T14:15:45;10.48;;;4.40;;
75847;SDS011;65750;47.540;19.090;2023-04-28T14:18:12;9.05;;;3.92;;
75847;SDS011;65750;47.540;19.090;2023-04-28T14:20:41;8.50;;;4.22;;
75847;SDS011;65750;47.540;19.090;2023-04-28T14:23:08;8.07;;;4.50;;
75847;SDS011;65750;47.540;19.090;2023-04-28T14:25:35;7.37;;;4.03;;
75847;SDS011;65750;47.540;19.090;2023-04-28T14:28:03;9.38;;;3.95;;
75847;SDS011;65750;47.540;19.090;2023-04-28T14:30:30;5.57;;;3.60;;
75847;SDS011;65750;47.540;19.090;2023-04-28T14:32:57;7.07;;;3.53;;
75847;SDS011;65750;47.540;19.090;2023-04-28T14:35:25;5.80;;;3.40;;
75847;SDS011;65750;47.540;19.090;2023-04-28T14:37:53;6.23;;;3.30;;
75847;SDS011;65750;47.540;19.090;2023-04-28T14:40:21;6.72;;;3.67;;
75847;SDS011;65750;47.540;19.090;2023-04-28T14:42:48;6.03;;;3.62;;
75847;SDS011;65750;47.540;19.090;2023-04-28T14:45:15;6.18;;;2.90;;